createdAt,value
2023-01-18T00:01:05.140Z,92339.00
2023-01-18T00:03:33.545Z,92337.53
2023-01-18T00:06:03.656Z,92333.28
2023-01-18T00:08:32.592Z,92369.41
2023-01-18T00:11:07.973Z,92312.25
2023-01-18T00:13:34.832Z,92329.81
2023-01-18T00:16:06.388Z,92334.28
2023-01-18T00:18:36.007Z,92355.91
2023-01-18T00:21:05.290Z,92342.03
2023-01-18T00:23:32.356Z,92356.31
2023-01-18T00:26:08.707Z,92345.25
2023-01-18T00:28:36.179Z,92344.91
2023-01-18T00:31:08.700Z,92349.09
2023-01-18T00:33:35.348Z,92310.59
2023-01-18T00:36:03.331Z,92335.13
2023-01-18T00:38:30.579Z,92337.75
2023-01-18T00:40:57.515Z,92333.31
2023-01-18T00:43:39.376Z,92306.59
2023-01-18T00:46:06.196Z,92357.41
2023-01-18T00:48:33.135Z,92353.41
2023-01-18T00:50:59.788Z,92386.41
2023-01-18T00:53:26.454Z,92354.59
2023-01-18T00:55:53.268Z,92323.53
2023-01-18T00:58:19.805Z,92367.09
2023-01-18T01:00:48.298Z,92361.50
2023-01-18T01:03:15.275Z,92373.88
2023-01-18T01:06:00.497Z,92371.47
2023-01-18T01:08:27.179Z,92376.00
2023-01-18T01:11:05.064Z,92371.97
2023-01-18T01:13:50.516Z,92361.81
2023-01-18T01:16:35.792Z,92342.78
2023-01-18T01:19:21.291Z,92340.38
2023-01-18T01:22:06.698Z,92361.00
2023-01-18T01:24:52.353Z,92358.72
2023-01-18T01:27:18.996Z,92338.16
2023-01-18T01:29:46.197Z,92339.63
2023-01-18T01:32:13.278Z,92353.53
2023-01-18T01:34:40.075Z,92370.66
2023-01-18T01:37:06.663Z,92352.59
2023-01-18T01:39:33.377Z,92391.22
2023-01-18T01:42:00.009Z,92341.66
2023-01-18T01:44:29.923Z,92334.53
2023-01-18T01:47:15.551Z,92354.28
2023-01-18T01:49:47.908Z,92351.78
2023-01-18T01:52:23.659Z,92376.28
2023-01-18T01:54:59.278Z,92391.03
2023-01-18T01:57:34.815Z,92409.31
2023-01-18T02:00:06.959Z,92391.88
2023-01-18T02:02:35.437Z,92386.56
2023-01-18T02:05:06.279Z,92402.13
2023-01-18T02:07:34.032Z,92385.22
2023-01-18T02:10:01.915Z,92363.31
2023-01-18T02:12:29.281Z,92363.81
2023-01-18T02:14:58.495Z,92344.22
2023-01-18T02:17:43.404Z,92366.00
2023-01-18T02:20:28.656Z,92345.13
2023-01-18T02:23:27.620Z,92370.22
2023-01-18T02:26:16.257Z,92359.06
2023-01-18T02:28:53.123Z,92390.72
2023-01-18T02:31:27.111Z,92332.56
2023-01-18T02:34:24.022Z,92352.09
2023-01-18T02:37:24.474Z,92351.44
2023-01-18T02:40:11.338Z,92392.75
2023-01-18T02:42:58.083Z,92384.41
2023-01-18T02:45:57.670Z,92354.84
2023-01-18T02:48:25.391Z,92356.09
2023-01-18T02:50:52.078Z,92365.47
2023-01-18T02:53:18.777Z,92394.97
2023-01-18T02:55:56.774Z,92396.06
2023-01-18T02:58:29.110Z,92400.28
2023-01-18T03:01:03.037Z,92412.81
2023-01-18T03:03:30.017Z,92395.13
2023-01-18T03:06:01.786Z,92394.88
2023-01-18T03:08:48.123Z,92385.44
2023-01-18T03:11:21.011Z,92377.31
2023-01-18T03:14:03.282Z,92414.63
2023-01-18T03:16:58.781Z,92405.66
2023-01-18T03:19:58.829Z,92405.41
2023-01-18T03:22:47.793Z,92389.56
2023-01-18T03:25:19.635Z,92365.66
2023-01-18T03:28:08.496Z,92384.03
2023-01-18T03:30:55.178Z,92390.22
2023-01-18T03:33:42.922Z,92365.81
2023-01-18T03:36:32.194Z,92382.75
2023-01-18T03:39:05.722Z,92382.41
2023-01-18T03:41:38.010Z,92367.00
2023-01-18T03:44:10.996Z,92373.44
2023-01-18T03:46:39.216Z,92349.47
2023-01-18T03:49:07.557Z,92364.97
2023-01-18T03:51:36.841Z,92378.47
2023-01-18T03:54:35.845Z,92371.31
2023-01-18T03:57:05.550Z,92364.06
2023-01-18T03:59:39.219Z,92362.91
2023-01-18T04:02:07.588Z,92364.66
2023-01-18T04:04:34.928Z,92371.84
2023-01-18T04:07:02.363Z,92367.09
2023-01-18T04:09:28.995Z,92400.81
2023-01-18T04:11:55.583Z,92421.41
2023-01-18T04:14:22.233Z,92409.09
2023-01-18T04:16:48.834Z,92387.88
2023-01-18T04:19:15.406Z,92394.63
2023-01-18T04:21:42.071Z,92410.69
2023-01-18T04:24:09.045Z,92400.16
2023-01-18T04:26:35.676Z,92380.41
2023-01-18T04:29:02.428Z,92393.22
2023-01-18T04:31:29.422Z,92388.38
2023-01-18T04:33:56.290Z,92420.81
2023-01-18T04:36:22.892Z,92420.81
2023-01-18T04:38:54.181Z,92412.28
2023-01-18T04:41:21.424Z,92421.69
2023-01-18T04:43:48.011Z,92386.03
2023-01-18T04:46:15.389Z,92399.06
2023-01-18T04:48:42.768Z,92382.00
2023-01-18T04:51:14.119Z,92395.34
2023-01-18T04:53:44.722Z,92401.72
2023-01-18T04:56:11.677Z,92409.59
2023-01-18T04:58:38.724Z,92392.75
2023-01-18T05:01:08.553Z,92383.94
2023-01-18T05:03:38.744Z,92384.28
2023-01-18T05:06:07.151Z,92391.06
2023-01-18T05:08:34.880Z,92398.78
2023-01-18T05:11:03.769Z,92372.56
2023-01-18T05:13:30.478Z,92402.97
2023-01-18T05:15:59.263Z,92365.44
2023-01-18T05:18:26.159Z,92384.66
2023-01-18T05:20:53.019Z,92396.81
2023-01-18T05:23:19.680Z,92394.53
2023-01-18T05:25:46.370Z,92373.06
2023-01-18T05:28:12.953Z,92382.75
2023-01-18T05:30:42.173Z,92397.59
2023-01-18T05:33:09.566Z,92414.16
2023-01-18T05:35:36.800Z,92439.09
2023-01-18T05:38:03.430Z,92409.75
2023-01-18T05:40:30.119Z,92445.84
2023-01-18T05:42:57.119Z,92444.78
2023-01-18T05:49:04.537Z,92452.03
2023-01-18T05:51:31.227Z,92472.13
2023-01-18T05:53:57.840Z,92441.25
2023-01-18T05:56:24.509Z,92457.16
2023-01-18T05:58:51.119Z,92419.00
2023-01-18T06:01:17.868Z,92444.72
2023-01-18T06:03:44.592Z,92490.34
2023-01-18T06:06:11.666Z,92466.69
2023-01-18T06:08:38.328Z,92451.97
2023-01-18T06:11:06.472Z,92491.81
2023-01-18T06:13:33.520Z,92485.56
2023-01-18T06:16:01.093Z,92476.22
2023-01-18T06:18:30.532Z,92464.97
2023-01-18T06:21:00.967Z,92501.06
2023-01-18T06:23:28.707Z,92483.09
2023-01-18T06:25:56.130Z,92478.25
2023-01-18T06:28:22.937Z,92472.94
2023-01-18T06:30:52.965Z,92520.03
2023-01-18T06:33:19.592Z,92477.97
2023-01-18T06:35:46.559Z,92474.59
2023-01-18T06:38:14.108Z,92533.94
2023-01-18T06:40:41.074Z,92470.56
2023-01-18T06:43:10.267Z,92513.03
2023-01-18T06:45:36.964Z,92527.03
2023-01-18T06:48:04.672Z,92487.00
2023-01-18T06:50:31.380Z,92525.84
2023-01-18T06:52:58.375Z,92518.38
2023-01-18T06:55:25.093Z,92461.31
2023-01-18T06:57:51.748Z,92496.88
2023-01-18T07:00:18.781Z,92483.13
2023-01-18T07:02:45.412Z,92470.00
2023-01-18T07:05:12.022Z,92535.13
2023-01-18T07:07:38.694Z,92470.88
2023-01-18T07:10:05.771Z,92536.28
2023-01-18T07:12:32.633Z,92504.03
2023-01-18T07:15:01.609Z,92535.59
2023-01-18T07:17:31.896Z,92526.50
2023-01-18T07:19:58.520Z,92510.88
2023-01-18T07:22:25.800Z,92538.72
2023-01-18T07:24:52.399Z,92518.38
2023-01-18T07:27:18.960Z,92514.47
2023-01-18T07:29:45.531Z,92486.13
2023-01-18T07:32:12.263Z,92507.69
2023-01-18T07:34:38.889Z,92531.56
2023-01-18T07:37:05.511Z,92531.56
2023-01-18T07:39:32.113Z,92517.94
2023-01-18T07:41:58.705Z,92509.56
2023-01-18T07:44:26.530Z,92541.84
2023-01-18T07:46:53.159Z,92518.03
2023-01-18T07:49:19.782Z,92543.75
2023-01-18T07:51:46.424Z,92568.00
2023-01-18T07:54:13.081Z,92562.31
2023-01-18T07:56:40.280Z,92581.88
2023-01-18T07:59:06.942Z,92581.41
2023-01-18T08:01:33.666Z,92569.44
2023-01-18T08:04:00.297Z,92614.34
2023-01-18T08:06:27.312Z,92619.00
2023-01-18T08:08:57.387Z,92637.09
2023-01-18T08:11:24.365Z,92652.31
2023-01-18T08:13:52.710Z,92666.09
2023-01-18T08:16:19.376Z,92660.66
2023-01-18T08:18:49.196Z,92646.75
2023-01-18T08:21:15.984Z,92634.31
2023-01-18T08:23:42.784Z,92664.94
2023-01-18T08:26:12.910Z,92667.38
2023-01-18T08:28:41.506Z,92637.22
2023-01-18T08:31:12.660Z,92670.50
2023-01-18T08:33:41.847Z,92668.50
2023-01-18T08:36:13.265Z,92663.81
2023-01-18T08:38:40.192Z,92639.53
2023-01-18T08:41:06.863Z,92631.84
2023-01-18T08:43:33.938Z,92619.13
2023-01-18T08:46:00.727Z,92649.78
2023-01-18T08:48:27.469Z,92653.75
2023-01-18T08:50:54.044Z,92622.47
2023-01-18T08:53:20.748Z,92665.81
2023-01-18T08:55:47.405Z,92656.50
2023-01-18T08:58:13.987Z,92675.41
2023-01-18T09:00:41.033Z,92673.91
2023-01-18T09:03:07.780Z,92676.41
2023-01-18T09:05:36.118Z,92670.13
2023-01-18T09:08:02.954Z,92693.09
2023-01-18T09:10:29.624Z,92691.91
2023-01-18T09:12:56.703Z,92709.13
2023-01-18T09:15:23.662Z,92697.47
2023-01-18T09:17:50.297Z,92734.50
2023-01-18T09:20:18.883Z,92707.84
2023-01-18T09:22:47.850Z,92742.50
2023-01-18T09:25:14.777Z,92719.53
2023-01-18T09:27:41.372Z,92726.56
2023-01-18T09:30:09.479Z,92737.47
2023-01-18T09:32:36.232Z,92755.03
2023-01-18T09:35:03.874Z,92745.25
2023-01-18T09:37:31.505Z,92754.81
2023-01-18T09:39:58.136Z,92745.47
2023-01-18T09:42:34.992Z,92757.81
2023-01-18T09:45:02.181Z,92770.94
2023-01-18T09:47:34.460Z,92752.03
2023-01-18T09:50:13.276Z,92767.53
2023-01-18T09:53:07.423Z,92749.81
2023-01-18T09:55:47.842Z,92727.03
2023-01-18T09:58:36.579Z,92724.97
2023-01-18T10:01:12.196Z,92733.69
2023-01-18T10:03:50.678Z,92746.38
2023-01-18T10:06:25.358Z,92724.47
2023-01-18T10:08:57.686Z,92722.66
2023-01-18T10:12:03.022Z,92738.19
2023-01-18T10:14:46.768Z,92753.00
2023-01-18T10:17:44.048Z,92716.78
2023-01-18T10:20:57.764Z,92743.84
2023-01-18T10:23:39.441Z,92727.25
2023-01-18T10:26:11.016Z,92741.34
2023-01-18T10:29:01.086Z,92722.75
2023-01-18T10:31:52.422Z,92732.47
2023-01-18T10:34:32.840Z,92727.31
2023-01-18T10:37:17.064Z,92737.72
2023-01-18T10:39:51.883Z,92747.66
2023-01-18T10:42:24.221Z,92751.47
2023-01-18T10:44:50.911Z,92743.31
2023-01-18T10:47:19.737Z,92757.25
2023-01-18T10:49:50.407Z,92745.00
2023-01-18T10:52:17.788Z,92747.50
2023-01-18T10:54:53.340Z,92762.59
2023-01-18T10:57:25.521Z,92763.47
2023-01-18T10:59:53.724Z,92770.50
2023-01-18T11:02:26.212Z,92741.09
2023-01-18T11:05:15.611Z,92748.72
2023-01-18T11:07:42.724Z,92730.78
2023-01-18T11:10:25.343Z,92748.81
2023-01-18T11:12:53.202Z,92735.16
2023-01-18T11:15:19.749Z,92754.03
2023-01-18T11:17:56.373Z,92720.56
2023-01-18T11:20:44.730Z,92700.94
2023-01-18T11:23:14.269Z,92731.72
2023-01-18T11:25:47.371Z,92710.78
2023-01-18T11:28:20.467Z,92749.19
2023-01-18T11:30:56.973Z,92715.00
2023-01-18T11:33:26.326Z,92714.03
2023-01-18T11:35:55.871Z,92700.91
2023-01-18T11:38:28.051Z,92699.72
2023-01-18T11:41:20.850Z,92706.13
2023-01-18T11:44:16.776Z,92717.09
2023-01-18T11:46:49.799Z,92708.66
2023-01-18T11:49:16.371Z,92707.41
2023-01-18T11:51:54.735Z,92710.22
2023-01-18T11:54:32.029Z,92710.22
2023-01-18T11:57:06.822Z,92723.25
2023-01-18T11:59:43.732Z,92718.31
2023-01-18T12:02:56.622Z,92713.25
2023-01-18T12:05:40.380Z,92697.81
2023-01-18T12:08:31.831Z,92690.16
2023-01-18T12:11:17.784Z,92680.72
2023-01-18T12:13:59.954Z,92698.75
2023-01-18T12:16:47.345Z,92710.09
2023-01-18T12:19:19.999Z,92703.69
2023-01-18T12:22:06.312Z,92719.63
2023-01-18T12:25:11.248Z,92717.25
2023-01-18T12:27:44.580Z,92741.41
2023-01-18T12:30:32.378Z,92742.22
2023-01-18T12:33:12.337Z,92756.19
2023-01-18T12:36:03.672Z,92756.81
2023-01-18T12:38:32.765Z,92763.13
2023-01-18T12:40:59.297Z,92767.63
2023-01-18T12:44:11.598Z,92777.09
2023-01-18T12:46:58.279Z,92784.09
2023-01-18T12:49:28.012Z,92781.47
2023-01-18T12:52:16.900Z,92780.94
2023-01-18T12:54:48.951Z,92787.59
2023-01-18T12:57:17.201Z,92803.19
2023-01-18T12:59:55.413Z,92838.19
2023-01-18T13:02:51.827Z,92824.38
2023-01-18T13:05:52.380Z,92803.34
2023-01-18T13:08:47.071Z,92818.81
2023-01-18T13:11:21.352Z,92802.41
2023-01-18T13:13:53.149Z,92807.94
2023-01-18T13:16:31.696Z,92793.81
2023-01-18T13:19:03.762Z,92806.81
2023-01-18T13:21:44.517Z,92820.06
2023-01-18T13:24:29.512Z,92815.03
2023-01-18T13:27:11.172Z,92819.06
2023-01-18T13:29:39.128Z,92819.03
2023-01-18T13:32:24.059Z,92810.56
2023-01-18T13:35:19.046Z,92807.38
2023-01-18T13:37:49.663Z,92814.22
2023-01-18T13:40:40.137Z,92811.13
2023-01-18T13:43:32.897Z,92845.56
2023-01-18T13:46:19.069Z,92812.06
2023-01-18T13:48:52.761Z,92816.41
2023-01-18T13:51:39.714Z,92810.78
2023-01-18T13:54:11.455Z,92829.63
2023-01-18T13:56:39.607Z,92800.75
2023-01-18T13:59:12.071Z,92826.25
2023-01-18T14:01:43.185Z,92816.06
2023-01-18T14:04:31.883Z,92850.19
2023-01-18T14:07:02.482Z,92845.09
2023-01-18T14:09:36.587Z,92837.75
2023-01-18T14:12:04.450Z,92850.66
2023-01-18T14:14:52.537Z,92839.84
2023-01-18T14:17:19.494Z,92847.50
2023-01-18T14:19:48.668Z,92861.34
2023-01-18T14:22:47.074Z,92863.16
2023-01-18T14:25:34.832Z,92877.50
2023-01-18T14:28:46.945Z,92880.41
2023-01-18T14:31:20.949Z,92875.94
2023-01-18T14:33:47.587Z,92883.06
2023-01-18T14:36:23.521Z,92894.88
2023-01-18T14:39:18.098Z,92901.72
2023-01-18T14:41:48.801Z,92890.34
2023-01-18T14:44:19.671Z,92900.63
2023-01-18T14:46:56.487Z,92894.47
2023-01-18T14:49:35.064Z,92902.38
2023-01-18T14:52:16.064Z,92899.25
2023-01-18T14:54:54.072Z,92890.91
2023-01-18T14:57:22.686Z,92904.81
2023-01-18T15:00:04.129Z,92907.63
2023-01-18T15:02:37.638Z,92892.53
2023-01-18T15:05:18.079Z,92904.53
2023-01-18T15:07:48.156Z,92908.63
2023-01-18T15:10:19.396Z,92912.31
2023-01-18T15:12:51.506Z,92908.44
2023-01-18T15:15:26.143Z,92909.41
2023-01-18T15:17:56.578Z,92928.03
2023-01-18T15:20:23.742Z,92928.81
2023-01-18T15:22:51.111Z,92926.34
2023-01-18T15:25:21.603Z,92912.78
2023-01-18T15:27:52.671Z,92894.25
2023-01-18T15:30:22.860Z,92913.69
2023-01-18T15:32:55.441Z,92904.22
2023-01-18T15:35:25.569Z,92901.72
2023-01-18T15:37:52.332Z,92906.66
2023-01-18T15:40:19.055Z,92920.72
2023-01-18T15:42:47.606Z,92910.22
2023-01-18T15:45:21.187Z,92914.56
2023-01-18T15:47:53.911Z,92908.59
2023-01-18T15:50:23.154Z,92898.47
2023-01-18T15:53:04.313Z,92908.19
2023-01-18T15:55:40.846Z,92907.31
2023-01-18T15:58:13.957Z,92926.22
2023-01-18T16:00:53.413Z,92912.50
2023-01-18T16:03:26.249Z,92917.53
2023-01-18T16:06:06.339Z,92915.00
2023-01-18T16:08:33.422Z,92908.91
2023-01-18T16:11:00.222Z,92923.41
2023-01-18T16:13:29.052Z,92934.88
2023-01-18T16:16:19.330Z,92925.25
2023-01-18T16:19:02.496Z,92924.34
2023-01-18T16:21:49.330Z,92932.63
2023-01-18T16:24:45.554Z,92925.41
2023-01-18T16:27:15.566Z,92937.41
2023-01-18T16:29:47.430Z,92932.03
2023-01-18T16:32:30.338Z,92951.09
2023-01-18T16:35:03.634Z,92950.88
2023-01-18T16:37:30.808Z,92933.47
2023-01-18T16:39:57.399Z,92936.72
2023-01-18T16:42:37.154Z,92933.84
2023-01-18T16:45:05.107Z,92935.41
2023-01-18T16:47:31.710Z,92942.06
2023-01-18T16:50:01.103Z,92927.50
2023-01-18T16:52:27.777Z,92931.88
2023-01-18T16:54:54.392Z,92942.34
2023-01-18T16:57:23.500Z,92929.13
2023-01-18T16:59:50.632Z,92920.78
2023-01-18T17:02:17.428Z,92910.00
2023-01-18T17:04:45.481Z,92913.22
2023-01-18T17:07:12.524Z,92931.00
2023-01-18T17:09:47.966Z,92907.03
2023-01-18T17:12:15.666Z,92905.31
2023-01-18T17:14:42.317Z,92916.06
2023-01-18T17:17:10.390Z,92907.28
2023-01-18T17:19:37.993Z,92929.09
2023-01-18T17:22:04.874Z,92931.31
2023-01-18T17:24:31.661Z,92913.81
2023-01-18T17:26:58.283Z,92941.06
2023-01-18T17:29:25.059Z,92940.91
2023-01-18T17:31:52.993Z,92939.53
2023-01-18T17:34:30.979Z,92946.00
2023-01-18T17:36:58.661Z,92920.78
2023-01-18T17:39:36.845Z,92939.97
2023-01-18T17:42:14.282Z,92957.84
2023-01-18T17:44:43.418Z,92956.97
2023-01-18T17:47:10.081Z,92970.09
2023-01-18T17:49:36.695Z,92961.41
2023-01-18T17:52:03.637Z,92957.53
2023-01-18T17:54:30.422Z,92965.16
2023-01-18T17:56:57.183Z,92976.25
2023-01-18T17:59:23.998Z,92969.75
2023-01-18T18:01:50.698Z,92979.13
2023-01-18T18:04:17.457Z,92960.28
2023-01-18T18:06:53.630Z,92967.06
2023-01-18T18:09:20.665Z,92983.03
2023-01-18T18:11:47.420Z,92983.50
2023-01-18T18:14:14.062Z,92984.00
2023-01-18T18:16:43.512Z,92981.44
2023-01-18T18:19:14.588Z,92991.69
2023-01-18T18:21:45.153Z,92961.34
2023-01-18T18:24:11.960Z,92975.88
2023-01-18T18:26:38.635Z,92987.69
2023-01-18T18:29:05.251Z,92981.78
2023-01-18T18:31:31.969Z,92998.19
2023-01-18T18:34:01.592Z,93002.22
2023-01-18T18:36:28.307Z,93015.69
2023-01-18T18:38:55.906Z,93009.31
2023-01-18T18:41:22.570Z,93018.88
2023-01-18T18:43:49.169Z,93026.97
2023-01-18T18:46:15.836Z,93022.63
2023-01-18T18:48:42.792Z,93040.38
2023-01-18T18:51:09.959Z,93029.69
2023-01-18T18:53:39.796Z,93031.41
2023-01-18T18:56:09.581Z,93043.69
2023-01-18T18:58:39.432Z,93034.34
2023-01-18T19:01:07.371Z,93042.53
2023-01-18T19:03:35.216Z,93065.75
2023-01-18T19:06:02.115Z,93044.66
2023-01-18T19:08:28.778Z,93031.03
2023-01-18T19:10:57.255Z,93048.75
2023-01-18T19:13:23.846Z,93063.03
2023-01-18T19:15:51.338Z,93040.50
2023-01-18T19:18:18.016Z,93061.13
2023-01-18T19:20:44.731Z,93063.25
2023-01-18T19:23:11.613Z,93064.03
2023-01-18T19:25:39.359Z,93064.09
2023-01-18T19:28:06.224Z,93055.28
2023-01-18T19:30:33.402Z,93057.94
2023-01-18T19:33:05.643Z,93063.84
2023-01-18T19:35:38.201Z,93053.78
2023-01-18T19:38:07.807Z,93064.72
2023-01-18T19:40:34.827Z,93064.38
2023-01-18T19:43:03.033Z,93064.56
2023-01-18T19:45:31.391Z,93070.97
2023-01-18T19:48:00.594Z,93079.13
2023-01-18T19:50:29.125Z,93079.81
2023-01-18T19:52:56.450Z,93066.84
2023-01-18T19:55:25.114Z,93103.75
2023-01-18T19:57:55.171Z,93066.25
2023-01-18T20:00:22.594Z,93094.50
2023-01-18T20:02:49.463Z,93089.47
2023-01-18T20:05:16.298Z,93088.69
2023-01-18T20:07:43.331Z,93084.13
2023-01-18T20:10:10.884Z,93080.25
2023-01-18T20:12:38.463Z,93065.50
2023-01-18T20:15:06.277Z,93061.44
2023-01-18T20:17:32.958Z,93076.06
2023-01-18T20:19:59.622Z,93089.06
2023-01-18T20:22:26.280Z,93084.59
2023-01-18T20:24:52.929Z,93096.38
2023-01-18T20:27:19.794Z,93082.00
2023-01-18T20:29:46.733Z,93094.50
2023-01-18T20:32:16.480Z,93054.91
2023-01-18T20:34:47.720Z,93070.78
2023-01-18T20:37:15.756Z,93051.03
2023-01-18T20:39:42.838Z,93081.19
2023-01-18T20:42:09.689Z,93077.00
2023-01-18T20:44:36.444Z,93068.78
2023-01-18T20:47:03.374Z,93069.91
2023-01-18T20:49:37.733Z,93067.53
2023-01-18T20:52:06.929Z,93056.38
2023-01-18T20:54:35.704Z,93035.69
2023-01-18T20:57:04.108Z,93043.25
2023-01-18T20:59:30.763Z,93027.94
2023-01-18T21:01:57.580Z,93037.50
2023-01-18T21:04:25.150Z,93011.22
2023-01-18T21:06:51.772Z,93034.94
2023-01-18T21:09:18.350Z,93025.28
2023-01-18T21:11:44.968Z,93049.97
2023-01-18T21:14:12.769Z,92985.41
2023-01-18T21:16:39.546Z,93016.59
2023-01-18T21:19:06.325Z,92952.50
2023-01-18T21:21:32.956Z,92982.41
2023-01-18T21:24:00.259Z,92977.75
2023-01-18T21:26:27.043Z,93002.38
2023-01-18T21:28:54.693Z,93008.31
2023-01-18T21:31:21.788Z,92979.19
2023-01-18T21:33:49.111Z,92979.28
2023-01-18T21:36:17.802Z,92984.72
2023-01-18T21:38:44.757Z,92965.94
2023-01-18T21:41:30.337Z,92949.63
2023-01-18T21:44:16.019Z,92930.34
2023-01-18T21:46:47.879Z,92923.78
2023-01-18T21:49:47.092Z,92957.25
2023-01-18T21:52:37.682Z,92959.53
2023-01-18T21:55:04.628Z,92932.03
2023-01-18T21:57:31.257Z,92938.38
2023-01-18T21:59:57.956Z,92961.38
2023-01-18T22:02:24.753Z,92939.16
2023-01-18T22:04:58.243Z,93039.00
2023-01-18T22:07:25.485Z,92940.81
2023-01-18T22:10:03.640Z,92942.84
2023-01-18T22:12:32.666Z,92954.16
2023-01-18T22:15:03.997Z,92984.28
2023-01-18T22:17:30.672Z,92987.16
2023-01-18T22:19:57.616Z,92939.03
2023-01-18T22:22:24.216Z,92950.09
2023-01-18T22:24:50.836Z,92950.91
2023-01-18T22:27:17.425Z,92935.41
2023-01-18T22:29:43.994Z,92945.84
2023-01-18T22:32:10.622Z,92938.72
2023-01-18T22:34:37.243Z,92941.09
2023-01-18T22:37:04.047Z,92961.00
2023-01-18T22:39:30.663Z,92909.59
2023-01-18T22:41:57.666Z,92915.28
2023-01-18T22:44:24.262Z,92922.00
2023-01-18T22:46:50.947Z,92955.94
2023-01-18T22:49:17.653Z,92934.25
2023-01-18T22:51:44.387Z,92919.88
2023-01-18T22:54:10.983Z,92898.94
2023-01-18T22:56:37.651Z,92930.34
2023-01-18T22:59:04.302Z,92905.72
2023-01-18T23:01:32.539Z,92942.28
2023-01-18T23:04:02.068Z,92938.72
2023-01-18T23:06:42.483Z,92913.97
2023-01-18T23:09:10.518Z,92913.69
2023-01-18T23:11:37.830Z,92936.44
2023-01-18T23:14:23.924Z,92911.53
2023-01-18T23:17:09.753Z,92887.75
2023-01-18T23:19:36.963Z,92896.06
2023-01-18T23:22:07.183Z,92936.41
2023-01-18T23:24:35.837Z,92937.31
2023-01-18T23:27:03.393Z,92920.94
2023-01-18T23:29:30.386Z,92946.88
2023-01-18T23:31:57.485Z,92928.94
2023-01-18T23:34:25.004Z,92931.72
2023-01-18T23:36:51.701Z,92933.09
2023-01-18T23:39:36.642Z,92934.25
2023-01-18T23:42:22.144Z,92918.47
2023-01-18T23:45:07.305Z,92918.19
2023-01-18T23:47:53.253Z,92914.22
2023-01-18T23:50:38.197Z,92924.19
2023-01-18T23:53:23.697Z,92935.09
2023-01-18T23:55:53.443Z,92917.06
2023-01-18T23:58:20.035Z,92932.28
